createdAt,value
2023-07-24T00:02:19.237Z,18.25
2023-07-24T00:04:46.039Z,17.75
2023-07-24T00:07:12.557Z,19.40
2023-07-24T00:09:39.046Z,20.67
2023-07-24T00:12:05.828Z,20.60
2023-07-24T00:14:32.389Z,19.48
2023-07-24T00:16:58.949Z,17.77
2023-07-24T00:19:25.543Z,18.67
2023-07-24T00:21:52.094Z,20.80
2023-07-24T00:24:18.609Z,21.85
2023-07-24T00:26:46.078Z,20.67
2023-07-24T00:29:12.691Z,17.73
2023-07-24T00:31:39.225Z,19.52
2023-07-24T00:34:05.792Z,19.50
2023-07-24T00:36:32.727Z,19.83
2023-07-24T00:38:59.513Z,21.08
2023-07-24T00:41:26.072Z,19.00
2023-07-24T00:43:52.573Z,18.60
2023-07-24T00:46:19.150Z,18.92
2023-07-24T00:48:45.658Z,18.58
2023-07-24T00:51:12.184Z,22.52
2023-07-24T00:53:38.723Z,20.73
2023-07-24T00:56:05.309Z,19.65
2023-07-24T00:58:31.905Z,22.45
2023-07-24T01:00:58.516Z,18.17
2023-07-24T01:03:26.500Z,18.60
2023-07-24T01:05:53.000Z,19.10
2023-07-24T01:08:19.512Z,19.55
2023-07-24T01:10:46.057Z,18.10
2023-07-24T01:13:20.433Z,18.40
2023-07-24T01:15:49.589Z,18.13
2023-07-24T01:18:17.202Z,17.63
2023-07-24T01:20:50.978Z,18.23
2023-07-24T01:23:23.670Z,15.90
2023-07-24T01:25:53.213Z,17.15
2023-07-24T01:28:20.144Z,17.60
2023-07-24T01:30:46.664Z,18.25
2023-07-24T01:33:13.235Z,18.77
2023-07-24T01:35:39.817Z,17.60
2023-07-24T01:38:06.376Z,16.92
2023-07-24T01:40:32.930Z,21.00
2023-07-24T01:43:00.801Z,18.40
2023-07-24T01:45:27.403Z,16.60
2023-07-24T01:47:54.030Z,20.85
2023-07-24T01:50:20.539Z,18.73
2023-07-24T01:52:47.020Z,17.80
2023-07-24T01:55:13.505Z,19.50
2023-07-24T01:57:40.104Z,19.75
2023-07-24T02:00:07.256Z,18.42
2023-07-24T02:02:36.190Z,17.40
2023-07-24T02:05:02.732Z,21.75
2023-07-24T02:07:29.334Z,18.58
2023-07-24T02:09:55.897Z,17.90
2023-07-24T02:12:22.435Z,17.90
2023-07-24T02:14:52.823Z,16.17
2023-07-24T02:17:19.530Z,16.88
2023-07-24T02:19:46.183Z,15.98
2023-07-24T02:22:15.173Z,17.70
2023-07-24T02:24:41.785Z,16.90
2023-07-24T02:27:08.805Z,14.68
2023-07-24T02:29:36.972Z,16.98
2023-07-24T02:32:03.655Z,15.07
2023-07-24T02:34:32.527Z,16.20
2023-07-24T02:36:59.083Z,16.05
2023-07-24T02:39:25.566Z,18.75
2023-07-24T02:41:52.107Z,15.10
2023-07-24T02:44:18.667Z,17.40
2023-07-24T02:46:45.191Z,16.70
2023-07-24T02:49:11.809Z,15.32
2023-07-24T02:51:41.297Z,13.48
2023-07-24T02:54:07.872Z,15.35
2023-07-24T02:56:34.385Z,16.40
2023-07-24T02:59:00.919Z,17.08
2023-07-24T03:01:27.508Z,16.00
2023-07-24T03:03:54.515Z,16.42
2023-07-24T03:06:21.085Z,18.58
2023-07-24T03:08:49.940Z,19.42
2023-07-24T03:11:16.505Z,16.33
2023-07-24T03:13:44.191Z,16.77
2023-07-24T03:16:10.794Z,17.65
2023-07-24T03:18:37.360Z,19.58
2023-07-24T03:21:04.317Z,17.80
2023-07-24T03:23:33.164Z,17.63
2023-07-24T03:25:59.640Z,18.00
2023-07-24T03:28:26.972Z,15.68
2023-07-24T03:30:53.634Z,17.60
2023-07-24T03:33:20.962Z,16.20
2023-07-24T03:35:47.498Z,22.52
2023-07-24T03:38:14.028Z,16.75
2023-07-24T03:40:40.687Z,18.08
2023-07-24T03:43:09.620Z,20.30
2023-07-24T03:45:36.233Z,18.35
2023-07-24T03:48:02.823Z,20.77
2023-07-24T03:50:30.239Z,17.23
2023-07-24T03:52:56.757Z,17.80
2023-07-24T03:55:23.411Z,19.45
2023-07-24T03:57:50.056Z,17.80
2023-07-24T04:00:16.676Z,20.42
2023-07-24T04:02:43.269Z,20.38
2023-07-24T04:05:09.877Z,17.15
2023-07-24T04:07:38.714Z,20.08
2023-07-24T04:10:05.682Z,21.40
2023-07-24T04:12:32.318Z,20.13
2023-07-24T04:14:58.885Z,19.95
2023-07-24T04:17:25.543Z,23.55
2023-07-24T04:19:52.202Z,24.50
2023-07-24T04:22:21.088Z,21.45
2023-07-24T04:24:47.744Z,19.23
2023-07-24T04:27:14.791Z,18.88
2023-07-24T04:29:41.319Z,18.67
2023-07-24T04:32:08.100Z,17.98
2023-07-24T04:34:34.752Z,18.08
2023-07-24T04:37:01.385Z,23.30
2023-07-24T04:39:27.858Z,20.90
2023-07-24T04:41:54.393Z,23.52
2023-07-24T04:44:23.280Z,22.25
2023-07-24T04:46:49.970Z,19.92
2023-07-24T04:49:16.552Z,21.55
2023-07-24T04:51:43.062Z,20.10
2023-07-24T04:54:09.960Z,22.30
2023-07-24T04:56:36.548Z,20.98
2023-07-24T04:59:03.117Z,23.33
2023-07-24T05:01:29.617Z,21.40
2023-07-24T05:03:56.170Z,22.85
2023-07-24T05:06:22.863Z,23.92
2023-07-24T05:08:49.431Z,22.65
2023-07-24T05:11:16.051Z,19.40
2023-07-24T05:13:42.642Z,17.95
2023-07-24T05:16:09.217Z,21.42
2023-07-24T05:18:36.152Z,20.02
2023-07-24T05:21:02.787Z,18.02
2023-07-24T05:23:29.287Z,21.33
2023-07-24T05:25:59.913Z,18.35
2023-07-24T05:28:30.240Z,17.13
2023-07-24T05:30:56.831Z,18.58
2023-07-24T05:33:25.779Z,17.75
2023-07-24T05:35:52.261Z,30.27
2023-07-24T05:38:18.755Z,19.50
2023-07-24T05:40:45.362Z,17.00
2023-07-24T05:43:11.921Z,20.42
2023-07-24T05:45:38.504Z,17.70
2023-07-24T05:48:05.290Z,20.45
2023-07-24T05:50:31.913Z,20.35
2023-07-24T05:52:58.464Z,17.00
2023-07-24T05:55:25.097Z,17.75
2023-07-24T05:57:51.630Z,19.15
2023-07-24T06:00:18.442Z,19.33
2023-07-24T06:02:46.315Z,15.63
2023-07-24T06:05:12.981Z,16.73
2023-07-24T06:07:39.511Z,17.02
2023-07-24T06:10:06.203Z,15.77
2023-07-24T06:12:32.725Z,16.77
2023-07-24T06:14:59.222Z,16.73
2023-07-24T06:17:25.820Z,18.92
2023-07-24T06:19:52.429Z,16.77
2023-07-24T06:22:18.887Z,15.15
2023-07-24T06:24:45.513Z,16.13
2023-07-24T06:27:12.584Z,18.25
2023-07-24T06:29:40.264Z,28.40
2023-07-24T06:32:07.194Z,20.60
2023-07-24T06:34:33.668Z,18.38
2023-07-24T06:37:16.692Z,14.35
2023-07-24T06:39:49.965Z,14.18
2023-07-24T06:42:16.515Z,16.13
2023-07-24T06:44:43.075Z,14.55
2023-07-24T06:47:09.685Z,15.10
2023-07-24T06:49:36.234Z,18.80
2023-07-24T06:52:03.112Z,15.65
2023-07-24T06:54:29.579Z,16.30
2023-07-24T06:56:56.086Z,14.90
2023-07-24T06:59:22.650Z,12.85
2023-07-24T07:01:49.175Z,13.40
2023-07-24T07:04:15.672Z,14.65
2023-07-24T07:06:44.910Z,16.90
2023-07-24T07:09:11.763Z,12.90
2023-07-24T07:11:38.368Z,13.93
2023-07-24T07:14:04.957Z,13.85
2023-07-24T07:16:31.889Z,14.93
2023-07-24T07:18:58.592Z,12.25
2023-07-24T07:21:25.204Z,12.15
2023-07-24T07:23:51.876Z,17.55
2023-07-24T07:26:18.900Z,12.38
2023-07-24T07:28:47.532Z,11.93
2023-07-24T07:31:14.137Z,12.15
2023-07-24T07:33:40.693Z,14.32
2023-07-24T07:36:07.353Z,13.38
2023-07-24T07:38:33.975Z,13.27
2023-07-24T07:41:05.106Z,12.40
2023-07-24T07:43:31.643Z,14.80
2023-07-24T07:46:00.492Z,12.05
2023-07-24T07:48:27.125Z,12.20
2023-07-24T07:50:53.744Z,12.15
2023-07-24T07:53:20.288Z,11.60
2023-07-24T07:55:46.800Z,12.48
2023-07-24T07:58:13.309Z,11.68
2023-07-24T08:00:40.988Z,12.10
2023-07-24T08:03:07.731Z,13.65
2023-07-24T08:05:34.364Z,14.82
2023-07-24T08:08:04.060Z,13.00
2023-07-24T08:10:30.642Z,12.77
2023-07-24T08:12:57.206Z,12.68
2023-07-24T08:15:23.917Z,12.50
2023-07-24T08:17:50.485Z,12.13
2023-07-24T08:20:17.038Z,12.85
2023-07-24T08:22:45.886Z,13.98
2023-07-24T08:25:12.391Z,13.55
2023-07-24T08:27:54.648Z,12.63
2023-07-24T08:30:25.531Z,13.70
2023-07-24T08:32:52.472Z,13.50
2023-07-24T08:35:19.010Z,14.07
2023-07-24T08:37:45.552Z,13.55
2023-07-24T08:40:12.450Z,13.90
2023-07-24T08:42:40.073Z,14.40
2023-07-24T08:45:07.092Z,14.20
2023-07-24T08:47:34.063Z,15.55
2023-07-24T08:50:00.690Z,15.48
2023-07-24T08:52:35.971Z,14.23
2023-07-24T08:55:04.622Z,14.13
2023-07-24T08:57:31.164Z,13.95
2023-07-24T08:59:59.000Z,14.10
2023-07-24T09:02:25.638Z,13.90
2023-07-24T09:04:52.246Z,17.20
2023-07-24T09:07:20.324Z,14.45
2023-07-24T09:09:49.961Z,15.32
2023-07-24T09:12:16.671Z,16.45
2023-07-24T09:14:43.194Z,14.38
2023-07-24T09:17:10.369Z,15.30
2023-07-24T09:19:36.992Z,14.18
2023-07-24T09:22:14.142Z,13.25
2023-07-24T09:24:50.629Z,14.82
2023-07-24T09:27:17.576Z,14.77
2023-07-24T09:29:46.948Z,14.77
2023-07-24T09:32:20.358Z,13.38
2023-07-24T09:34:46.924Z,14.48
2023-07-24T09:37:23.266Z,13.90
2023-07-24T09:39:49.793Z,15.43
2023-07-24T09:42:16.389Z,15.55
2023-07-24T09:44:42.896Z,14.15
2023-07-24T09:47:31.032Z,14.65
2023-07-24T09:49:56.129Z,14.02
2023-07-24T09:52:22.841Z,15.50
2023-07-24T09:54:49.383Z,13.18
2023-07-24T09:57:21.859Z,14.18
2023-07-24T09:59:49.068Z,14.27
2023-07-24T10:02:15.625Z,16.08
2023-07-24T10:04:42.260Z,15.82
2023-07-24T10:07:08.963Z,13.70
2023-07-24T10:09:38.124Z,15.02
2023-07-24T10:12:04.902Z,15.07
2023-07-24T10:14:31.698Z,13.88
2023-07-24T10:16:58.317Z,14.23
2023-07-24T10:19:24.889Z,14.75
2023-07-24T10:21:51.939Z,16.40
2023-07-24T10:24:31.478Z,13.75
2023-07-24T10:27:05.236Z,14.75
2023-07-24T10:29:35.216Z,16.70
2023-07-24T10:32:02.031Z,18.43
2023-07-24T10:34:37.349Z,15.75
2023-07-24T10:37:04.510Z,16.40
2023-07-24T10:39:38.550Z,18.73
2023-07-24T10:42:08.992Z,17.02
2023-07-24T10:44:35.512Z,17.52
2023-07-24T10:47:02.329Z,16.08
2023-07-24T10:49:28.894Z,17.67
2023-07-24T10:52:01.493Z,16.38
2023-07-24T10:54:28.097Z,15.85
2023-07-24T10:57:03.595Z,17.75
2023-07-24T10:59:36.867Z,18.73
2023-07-24T11:02:05.331Z,16.85
2023-07-24T11:04:34.322Z,18.73
2023-07-24T11:07:01.461Z,18.83
2023-07-24T11:09:38.425Z,18.60
2023-07-24T11:12:12.312Z,18.33
2023-07-24T11:14:51.290Z,18.98
2023-07-24T11:17:20.259Z,16.88
2023-07-24T11:19:46.913Z,18.00
2023-07-24T11:22:13.600Z,16.35
2023-07-24T11:24:49.322Z,17.27
2023-07-24T11:27:16.754Z,14.38
2023-07-24T11:29:50.398Z,18.67
2023-07-24T11:32:20.752Z,17.45
2023-07-24T11:34:48.226Z,14.52
2023-07-24T11:37:14.956Z,15.88
2023-07-24T11:39:41.639Z,13.38
2023-07-24T11:42:08.197Z,14.05
2023-07-24T11:44:34.713Z,15.57
2023-07-24T11:47:05.202Z,16.02
2023-07-24T11:49:32.732Z,14.82
2023-07-24T11:52:04.044Z,13.27
2023-07-24T11:54:30.569Z,14.55
2023-07-24T11:56:57.072Z,14.48
2023-07-24T11:59:23.604Z,15.07
2023-07-24T12:01:50.206Z,16.70
2023-07-24T12:04:17.221Z,14.27
2023-07-24T12:06:44.132Z,13.43
2023-07-24T12:09:11.739Z,14.15
2023-07-24T12:11:45.488Z,13.02
2023-07-24T12:14:12.801Z,15.02
2023-07-24T12:16:39.487Z,15.40
2023-07-24T12:19:07.113Z,13.20
2023-07-24T12:21:36.198Z,14.63
2023-07-24T12:24:02.779Z,16.30
2023-07-24T12:26:29.421Z,15.07
2023-07-24T12:28:56.133Z,12.27
2023-07-24T12:31:22.648Z,14.60
2023-07-24T12:33:49.286Z,14.82
2023-07-24T12:36:15.856Z,13.57
2023-07-24T12:38:42.379Z,14.77
2023-07-24T12:41:27.920Z,15.13
2023-07-24T12:43:54.655Z,12.75
2023-07-24T12:46:21.256Z,13.45
2023-07-24T12:48:47.914Z,13.52
2023-07-24T12:51:16.741Z,11.88
2023-07-24T12:53:52.587Z,12.88
2023-07-24T12:56:29.855Z,15.13
2023-07-24T12:58:56.394Z,16.48
2023-07-24T13:01:23.153Z,11.60
2023-07-24T13:03:49.725Z,15.48
2023-07-24T13:06:16.250Z,13.75
2023-07-24T13:08:42.815Z,13.93
2023-07-24T13:11:11.720Z,13.80
2023-07-24T13:13:38.231Z,12.32
2023-07-24T13:16:07.105Z,17.20
2023-07-24T13:18:33.692Z,12.20
2023-07-24T13:21:00.360Z,12.93
2023-07-24T13:23:26.913Z,12.82
2023-07-24T13:25:53.626Z,14.00
2023-07-24T13:28:20.702Z,14.48
2023-07-24T13:30:47.324Z,13.23
2023-07-24T13:33:14.012Z,13.13
2023-07-24T13:35:40.616Z,13.93
2023-07-24T13:38:09.325Z,13.60
2023-07-24T13:40:36.331Z,12.40
2023-07-24T13:43:05.932Z,12.90
2023-07-24T13:45:32.574Z,12.57
2023-07-24T13:48:03.384Z,11.95
2023-07-24T13:52:56.451Z,13.30
2023-07-24T13:55:22.960Z,13.52
2023-07-24T13:57:49.565Z,12.98
2023-07-24T14:00:16.317Z,13.90
2023-07-24T14:02:42.837Z,14.27
2023-07-24T14:05:09.783Z,13.65
2023-07-24T14:07:36.387Z,14.65
2023-07-24T14:10:02.993Z,13.55
2023-07-24T14:12:29.471Z,13.52
2023-07-24T14:14:55.999Z,12.98
2023-07-24T14:17:22.634Z,13.57
2023-07-24T14:19:49.157Z,16.02
2023-07-24T14:22:15.687Z,16.92
2023-07-24T14:24:42.336Z,15.35
2023-07-24T14:27:09.497Z,14.70
2023-07-24T14:29:36.085Z,13.80
2023-07-24T14:32:02.680Z,15.18
2023-07-24T14:34:29.870Z,15.05
2023-07-24T14:36:56.474Z,13.55
2023-07-24T14:39:23.029Z,13.38
2023-07-24T14:41:51.583Z,13.30
2023-07-24T14:44:18.544Z,15.43
2023-07-24T14:46:45.116Z,15.32
2023-07-24T14:49:11.732Z,13.75
2023-07-24T14:51:41.606Z,13.90
2023-07-24T14:54:10.611Z,16.20
2023-07-24T14:56:53.012Z,14.35
2023-07-24T14:59:24.309Z,15.82
2023-07-24T15:01:50.970Z,15.80
2023-07-24T15:04:17.633Z,14.13
2023-07-24T15:06:44.224Z,13.52
2023-07-24T15:09:12.459Z,15.20
2023-07-24T15:11:39.038Z,14.23
2023-07-24T15:14:05.611Z,13.90
2023-07-24T15:16:32.202Z,14.18
2023-07-24T15:18:58.809Z,14.45
2023-07-24T15:21:25.362Z,13.38
2023-07-24T15:23:54.237Z,14.20
2023-07-24T15:26:21.266Z,12.77
2023-07-24T15:28:47.769Z,12.77
2023-07-24T15:31:14.335Z,12.02
2023-07-24T15:33:41.021Z,14.18
2023-07-24T15:36:07.740Z,14.82
2023-07-24T15:38:34.293Z,13.27
2023-07-24T15:41:00.813Z,13.95
2023-07-24T15:43:27.359Z,14.68
2023-07-24T15:45:54.005Z,14.13
2023-07-24T15:48:26.204Z,14.63
2023-07-24T15:50:53.502Z,13.68
2023-07-24T15:53:20.013Z,15.10
2023-07-24T15:55:48.882Z,15.35
2023-07-24T15:58:17.829Z,15.18
2023-07-24T16:00:44.712Z,17.60
2023-07-24T16:03:11.283Z,16.48
2023-07-24T16:05:37.925Z,15.10
2023-07-24T16:08:04.584Z,14.85
2023-07-24T16:10:33.550Z,16.27
2023-07-24T16:13:02.485Z,16.00
2023-07-24T16:20:30.291Z,17.10
2023-07-24T16:22:56.891Z,16.17
2023-07-24T16:25:25.834Z,15.60
2023-07-24T16:27:52.458Z,18.40
2023-07-24T16:30:19.276Z,14.95
2023-07-24T16:35:16.060Z,16.43
2023-07-24T16:37:42.603Z,16.08
2023-07-24T16:40:09.801Z,16.05
2023-07-24T16:42:36.360Z,13.95
2023-07-24T16:45:03.032Z,16.17
2023-07-24T16:47:29.800Z,16.65
2023-07-24T16:49:56.483Z,14.35
2023-07-24T16:52:23.311Z,18.38
2023-07-24T16:54:52.212Z,13.73
2023-07-24T16:57:18.785Z,14.55
2023-07-24T16:59:45.363Z,14.65
2023-07-24T17:02:11.984Z,15.15
2023-07-24T17:04:38.568Z,16.15
2023-07-24T17:07:07.460Z,14.45
2023-07-24T17:09:34.812Z,14.63
2023-07-24T17:12:04.692Z,14.38
2023-07-24T17:14:31.594Z,15.83
2023-07-24T17:17:00.620Z,15.07
2023-07-24T17:19:27.410Z,16.80
2023-07-24T17:21:53.944Z,16.33
2023-07-24T17:24:20.561Z,14.60
2023-07-24T17:26:47.219Z,16.08
2023-07-24T17:29:16.044Z,16.25
2023-07-24T17:31:44.107Z,15.40
2023-07-24T17:34:10.659Z,14.60
2023-07-24T17:36:37.258Z,16.33
2023-07-24T17:39:03.998Z,15.50
2023-07-24T17:41:30.801Z,14.90
2023-07-24T17:43:57.558Z,16.00
2023-07-24T17:46:24.163Z,16.42
2023-07-24T17:48:50.935Z,15.57
2023-07-24T17:51:17.458Z,15.13
2023-07-24T17:53:46.320Z,14.73
2023-07-24T17:56:12.840Z,15.88
2023-07-24T17:58:39.713Z,17.10
2023-07-24T18:01:08.592Z,16.90
2023-07-24T18:03:35.319Z,17.05
2023-07-24T18:06:02.065Z,15.57
2023-07-24T18:08:28.628Z,14.73
2023-07-24T18:10:55.126Z,16.92
2023-07-24T18:13:23.996Z,15.25
2023-07-24T18:15:50.510Z,16.58
2023-07-24T18:18:17.116Z,15.93
2023-07-24T18:20:44.097Z,16.38
2023-07-24T18:23:11.185Z,22.27
2023-07-24T18:25:37.763Z,16.05
2023-07-24T18:28:04.832Z,20.15
2023-07-24T18:30:31.575Z,19.58
2023-07-24T18:32:58.315Z,26.58
2023-07-24T18:35:25.055Z,18.85
2023-07-24T18:37:51.812Z,20.27
2023-07-24T18:40:20.693Z,17.63
2023-07-24T18:42:49.655Z,22.65
2023-07-24T18:45:16.290Z,22.73
2023-07-24T18:47:42.913Z,20.55
2023-07-24T18:50:12.314Z,18.02
2023-07-24T18:52:39.172Z,19.20
2023-07-24T18:55:08.444Z,29.00
2023-07-24T18:57:35.016Z,22.08
2023-07-24T19:00:01.730Z,20.63
2023-07-24T19:02:28.348Z,24.85
2023-07-24T19:04:55.041Z,18.70
2023-07-24T19:07:21.592Z,23.65
2023-07-24T19:09:48.159Z,23.30
2023-07-24T19:12:14.738Z,22.05
2023-07-24T19:14:41.607Z,27.48
2023-07-24T19:17:08.218Z,22.23
2023-07-24T19:19:34.903Z,27.75
2023-07-24T19:22:01.425Z,22.15
2023-07-24T19:24:27.958Z,21.75
2023-07-24T19:26:54.542Z,21.45
2023-07-24T19:29:21.055Z,22.83
2023-07-24T19:31:48.224Z,23.48
2023-07-24T19:34:14.935Z,24.20
2023-07-24T19:36:41.440Z,23.65
2023-07-24T19:39:07.912Z,20.27
2023-07-24T19:41:34.461Z,24.88
2023-07-24T19:44:01.036Z,25.65
2023-07-24T19:46:27.557Z,22.13
2023-07-24T19:48:54.110Z,23.10
2023-07-24T19:51:20.618Z,22.55
2023-07-24T19:53:47.203Z,21.45
2023-07-24T19:56:13.713Z,20.75
2023-07-24T19:58:40.311Z,20.42
2023-07-24T20:01:07.271Z,23.90
2023-07-24T20:03:34.384Z,21.60
2023-07-24T20:06:04.307Z,22.40
2023-07-24T20:08:33.356Z,22.23
2023-07-24T20:11:01.244Z,19.40
2023-07-24T20:13:28.550Z,21.33
2023-07-24T20:15:55.196Z,20.48
2023-07-24T20:18:21.831Z,20.10
2023-07-24T20:20:48.589Z,21.40
2023-07-24T20:23:15.300Z,18.35
2023-07-24T20:25:42.179Z,22.30
2023-07-24T20:28:09.404Z,18.45
2023-07-24T20:30:39.498Z,19.17
2023-07-24T20:33:06.341Z,21.90
2023-07-24T20:35:33.146Z,19.60
2023-07-24T20:37:59.984Z,20.20
2023-07-24T20:40:26.874Z,20.67
2023-07-24T20:42:53.491Z,21.88
2023-07-24T20:45:20.046Z,20.35
2023-07-24T20:47:46.691Z,20.05
2023-07-24T20:50:13.341Z,21.65
2023-07-24T20:52:40.983Z,18.00
2023-07-24T20:55:07.641Z,19.48
2023-07-24T20:57:34.177Z,22.08
2023-07-24T21:00:00.781Z,19.13
2023-07-24T21:02:27.370Z,22.02
2023-07-24T21:04:56.411Z,22.33
2023-07-24T21:07:23.083Z,17.92
2023-07-24T21:09:52.618Z,20.05
2023-07-24T21:12:19.242Z,17.92
2023-07-24T21:14:45.862Z,21.25
2023-07-24T21:17:12.490Z,22.75
2023-07-24T21:19:39.233Z,19.40
2023-07-24T21:22:05.752Z,22.63
2023-07-24T21:24:32.269Z,19.55
2023-07-24T21:26:59.307Z,17.75
2023-07-24T21:29:25.886Z,25.05
2023-07-24T21:31:52.515Z,20.48
2023-07-24T21:34:20.169Z,20.33
2023-07-24T21:36:46.684Z,19.88
2023-07-24T21:39:13.297Z,19.88
2023-07-24T21:41:39.838Z,19.02
2023-07-24T21:44:06.409Z,20.42
2023-07-24T21:46:32.999Z,20.58
2023-07-24T21:48:59.705Z,24.25
2023-07-24T21:51:26.209Z,22.52
2023-07-24T21:53:52.725Z,17.70
2023-07-24T21:56:19.332Z,23.63
2023-07-24T21:58:45.978Z,18.25
2023-07-24T22:01:12.547Z,19.40
2023-07-24T22:03:39.151Z,22.88
2023-07-24T22:06:07.520Z,22.38
2023-07-24T22:08:36.835Z,18.08
2023-07-24T22:11:09.478Z,20.98
2023-07-24T22:13:35.971Z,22.00
2023-07-24T22:16:02.589Z,18.40
2023-07-24T22:18:29.127Z,19.15
2023-07-24T22:20:55.681Z,18.00
2023-07-24T22:23:25.084Z,19.27
2023-07-24T22:25:51.837Z,16.25
2023-07-24T22:28:18.798Z,17.80
2023-07-24T22:30:45.404Z,19.55
2023-07-24T22:33:12.113Z,17.92
2023-07-24T22:35:38.619Z,17.05
2023-07-24T22:38:05.165Z,16.67
2023-07-24T22:40:31.806Z,17.65
2023-07-24T22:42:58.393Z,16.63
2023-07-24T22:45:25.390Z,18.13
2023-07-24T22:47:51.939Z,17.98
2023-07-24T22:50:18.441Z,17.73
2023-07-24T22:52:45.091Z,15.57
2023-07-24T22:55:11.748Z,18.35
2023-07-24T22:57:38.332Z,18.23
2023-07-24T23:00:06.064Z,18.65
2023-07-24T23:02:32.554Z,14.23
2023-07-24T23:04:59.132Z,16.40
2023-07-24T23:07:25.697Z,17.27
2023-07-24T23:09:52.284Z,17.55
2023-07-24T23:12:18.843Z,26.60
2023-07-24T23:14:45.428Z,22.13
2023-07-24T23:17:12.055Z,20.50
2023-07-24T23:19:38.745Z,19.17
2023-07-24T23:22:05.409Z,17.15
2023-07-24T23:24:32.981Z,17.90
2023-07-24T23:27:00.019Z,16.05
2023-07-24T23:29:26.656Z,17.20
2023-07-24T23:31:56.327Z,17.63
2023-07-24T23:34:22.877Z,16.40
2023-07-24T23:36:49.453Z,19.00
2023-07-24T23:39:16.072Z,17.40
2023-07-24T23:41:42.611Z,15.90
2023-07-24T23:44:09.138Z,17.55
2023-07-24T23:46:35.725Z,15.88
2023-07-24T23:49:02.278Z,16.25
2023-07-24T23:51:29.064Z,17.10
2023-07-24T23:53:55.776Z,16.75
2023-07-24T23:56:22.354Z,15.35
2023-07-24T23:58:48.877Z,16.23
